Time;durP1;ratioP1;P1;durP2;ratioP2;P2;SDS_P1;SDS_P2;PMS_P1;PMS_P2;Temp;Humidity;BMP_temperature;BMP_pressure;BME280_temperature;BME280_humidity;BME280_pressure;Samples;Min_cycle;Max_cycle;Signal;HPM_P1;HPM_P2
2024/02/20 00:04:33;;;;;;;1.35;1.25;;;;;;;8.62;87.23;101526.50;15788529;28;20535;-54
2024/02/20 00:12:08;;;;;;;0.28;0.28;;;;;;;8.45;88.73;101533.81;15796004;28;20500;-52
2024/02/20 00:19:45;;;;;;;0.32;0.32;;;;;;;8.25;89.48;101537.88;15763685;28;20052;-51
2024/02/20 00:27:19;;;;;;;0.20;0.20;;;;;;;8.70;87.81;101534.47;15799264;28;20127;-51
2024/02/20 00:34:53;;;;;;;0.20;0.20;;;;;;;8.45;88.83;101539.16;15798292;28;20040;-48
2024/02/20 00:42:28;;;;;;;0.08;0.08;;;;;;;8.33;88.89;101538.69;15799894;28;20036;-55
2024/02/20 00:50:03;;;;;;;0.43;0.43;;;;;;;8.52;88.64;101536.59;15802777;28;20040;-52
2024/02/20 00:57:37;;;;;;;0.00;0.00;;;;;;;8.11;90.62;101534.97;15800363;28;20032;-52
2024/02/20 01:05:12;;;;;;;0.10;0.10;;;;;;;8.45;89.92;101536.50;15805376;28;20059;-50
2024/02/20 01:12:49;;;;;;;0.75;0.75;;;;;;;8.53;89.74;101546.28;15806162;28;20040;-52
2024/02/20 01:20:29;;;;;;;0.38;0.30;;;;;;;8.14;90.42;101533.78;15764344;28;20501;-48
2024/02/20 01:28:04;;;;;;;1.35;1.25;;;;;;;8.40;89.18;101538.88;15816497;28;20024;-54
2024/02/20 01:35:41;;;;;;;0.80;0.57;;;;;;;8.28;89.75;101530.34;15825878;28;20123;-53
2024/02/20 01:43:16;;;;;;;0.00;0.00;;;;;;;8.29;89.46;101536.53;15799288;28;20051;-51
2024/02/20 01:50:51;;;;;;;0.10;0.10;;;;;;;8.49;87.71;101537.81;15797341;28;20064;-52
2024/02/20 01:58:25;;;;;;;0.52;0.52;;;;;;;8.18;87.74;101537.78;15742501;28;20044;-48
2024/02/20 02:06:00;;;;;;;0.10;0.10;;;;;;;8.10;88.24;101525.25;15796699;28;20126;-49
2024/02/20 02:13:34;;;;;;;0.50;0.50;;;;;;;8.26;88.17;101529.72;15777814;28;20040;-47
2024/02/20 02:21:09;;;;;;;0.20;0.20;;;;;;;8.14;86.96;101486.47;15764436;28;20047;-49
2024/02/20 02:28:47;;;;;;;1.27;1.15;;;;;;;7.97;87.04;101518.81;15771943;28;20055;-52
2024/02/20 02:36:21;;;;;;;0.10;0.10;;;;;;;8.10;86.15;101533.28;15777121;28;20087;-51
2024/02/20 02:43:56;;;;;;;0.00;0.00;;;;;;;7.83;87.19;101533.72;15755684;28;20048;-47
2024/02/20 02:51:29;;;;;;;0.43;0.43;;;;;;;7.91;86.08;101533.72;15776132;28;20070;-49
2024/02/20 02:59:05;;;;;;;0.00;0.00;;;;;;;7.88;86.65;101532.22;15808193;28;20032;-50
2024/02/20 03:06:40;;;;;;;0.00;0.00;;;;;;;8.19;85.17;101540.25;15792259;28;20044;-49
2024/02/20 03:14:21;;;;;;;0.00;0.00;;;;;;;7.93;85.19;101542.41;15803010;28;20079;-52
2024/02/20 03:21:58;;;;;;;0.10;0.10;;;;;;;8.21;85.03;101542.78;15781489;28;20048;-51
2024/02/20 03:29:33;;;;;;;0.00;0.00;;;;;;;8.27;83.88;101551.94;15785166;28;20043;-48
2024/02/20 03:37:08;;;;;;;0.82;0.65;;;;;;;8.27;84.08;101565.31;15803979;28;20067;-49
2024/02/20 03:44:43;;;;;;;0.00;0.00;;;;;;;8.43;84.08;101567.91;15781899;28;20043;-51
2024/02/20 03:52:19;;;;;;;0.00;0.00;;;;;;;8.40;84.08;101565.63;15801344;28;20043;-52
2024/02/20 03:59:58;;;;;;;0.10;0.10;;;;;;;8.18;84.97;101572.53;15805540;28;20044;-48
2024/02/20 04:07:35;;;;;;;0.00;0.00;;;;;;;8.06;86.99;101581.94;15858244;22;20693;-45
2024/02/20 04:15:12;;;;;;;0.00;0.00;;;;;;;7.79;89.51;101591.22;15867140;27;20043;-48
2024/02/20 04:22:47;;;;;;;0.38;0.20;;;;;;;8.12;87.44;101594.63;15858167;28;20065;-44
2024/02/20 04:30:25;;;;;;;0.00;0.00;;;;;;;8.16;87.89;101595.97;15857266;28;20184;-46
2024/02/20 04:38:00;;;;;;;0.00;0.00;;;;;;;7.97;87.42;101593.66;15855890;28;20331;-45
2024/02/20 04:45:35;;;;;;;0.40;0.40;;;;;;;7.84;87.78;101608.41;15847984;28;20068;-47
2024/02/20 04:53:09;;;;;;;0.57;0.40;;;;;;;7.60;88.21;101608.44;15773750;28;20055;-45
2024/02/20 05:00:45;;;;;;;0.00;0.00;;;;;;;7.63;88.26;101613.47;15792364;28;20288;-48
2024/02/20 05:08:18;;;;;;;0.00;0.00;;;;;;;7.72;87.63;101614.28;15803555;28;20050;-48
2024/02/20 05:15:54;;;;;;;0.00;0.00;;;;;;;7.70;88.29;101625.16;15790951;28;20047;-48
2024/02/20 05:23:28;;;;;;;0.10;0.10;;;;;;;7.45;88.53;101628.84;15788726;28;20032;-49
2024/02/20 05:31:25;;;;;;;0.00;0.00;;;;;;;7.29;88.63;101646.53;15779201;28;20062;-46
2024/02/20 05:39:05;;;;;;;0.00;0.00;;;;;;;7.15;89.36;101649.88;15790997;28;20036;-43
2024/02/20 05:46:41;;;;;;;0.00;0.00;;;;;;;7.09;88.54;101669.22;15799455;28;20032;-44
2024/02/20 05:54:15;;;;;;;0.00;0.00;;;;;;;7.35;87.68;101663.72;15800929;28;20574;-43
2024/02/20 06:01:50;;;;;;;0.00;0.00;;;;;;;6.86;89.73;101674.34;15836712;28;20081;-45
2024/02/20 06:09:25;;;;;;;0.00;0.00;;;;;;;6.88;89.71;101678.50;15796589;28;20357;-46
2024/02/20 06:17:05;;;;;;;0.00;0.00;;;;;;;6.88;89.67;101691.84;15772965;28;20036;-45
2024/02/20 06:24:43;;;;;;;0.00;0.00;;;;;;;6.79;90.04;101698.16;15829965;28;20392;-48
2024/02/20 06:32:18;;;;;;;0.15;0.15;;;;;;;6.98;89.30;101707.72;15847731;28;20031;-45
2024/02/20 06:39:53;;;;;;;0.00;0.00;;;;;;;6.98;90.22;101715.72;15866491;28;20475;-48
2024/02/20 06:47:29;;;;;;;0.00;0.00;;;;;;;7.13;89.59;101714.13;15841474;28;20043;-45
2024/02/20 06:55:04;;;;;;;0.00;0.00;;;;;;;7.20;88.88;101729.47;15827460;28;20040;-45
2024/02/20 07:02:42;;;;;;;0.00;0.00;;;;;;;7.21;89.34;101739.16;15802932;28;20043;-47
2024/02/20 07:10:16;;;;;;;0.13;0.13;;;;;;;7.01;90.59;101742.09;15797585;28;20102;-46
2024/02/20 07:17:51;;;;;;;0.00;0.00;;;;;;;7.40;89.18;101758.38;15782055;28;20054;-45
2024/02/20 07:25:26;;;;;;;0.00;0.00;;;;;;;7.10;89.77;101753.66;15780411;28;20381;-48
2024/02/20 07:33:01;;;;;;;;;;;;;;;7.48;89.46;101765.56;15799374;28;20051;-47
2024/02/20 07:40:35;;;;;;;0.00;0.00;;;;;;;7.58;90.38;101776.09;15802019;28;20026;-46
2024/02/20 07:48:11;;;;;;;0.00;0.00;;;;;;;7.45;88.91;101781.94;15826318;28;20107;-49
2024/02/20 07:55:45;;;;;;;0.00;0.00;;;;;;;7.51;89.08;101785.81;15828882;28;20365;-50
2024/02/20 08:03:23;;;;;;;0.00;0.00;;;;;;;7.62;87.95;101794.31;15822206;27;20116;-46
2024/02/20 08:10:57;;;;;;;0.00;0.00;;;;;;;7.89;86.27;101787.00;15792569;28;20150;-48
2024/02/20 08:18:32;;;;;;;0.00;0.00;;;;;;;7.70;86.64;101793.50;15848103;28;20040;-50
2024/02/20 08:26:06;;;;;;;0.00;0.00;;;;;;;7.82;85.93;101804.69;15829840;28;20130;-46
2024/02/20 08:33:47;;;;;;;0.00;0.00;;;;;;;7.85;84.83;101812.38;15841320;28;20035;-45
2024/02/20 08:41:21;;;;;;;0.00;0.00;;;;;;;7.87;84.89;101813.03;15858947;28;20051;-49
2024/02/20 08:48:56;;;;;;;0.10;0.10;;;;;;;7.67;85.03;101829.41;15840352;28;20381;-47
2024/02/20 08:56:30;;;;;;;0.00;0.00;;;;;;;7.73;84.81;101825.22;15855735;28;20042;-44
2024/02/20 09:04:08;;;;;;;1.08;0.88;;;;;;;7.86;82.64;101833.59;15835055;28;20040;-44
2024/02/20 09:11:42;;;;;;;0.00;0.00;;;;;;;8.02;80.85;101838.13;15794512;28;20050;-45
2024/02/20 09:19:18;;;;;;;1.13;0.95;;;;;;;8.84;76.59;101838.06;15817601;28;20055;-46
2024/02/20 09:26:52;;;;;;;0.30;0.15;;;;;;;8.49;75.61;101847.34;15828284;28;20039;-51
2024/02/20 09:34:30;;;;;;;0.00;0.00;;;;;;;8.51;76.08;101858.69;15815239;28;20044;-46
2024/02/20 09:42:07;;;;;;;0.00;0.00;;;;;;;8.02;77.82;101867.56;15803735;28;20131;-47
2024/02/20 09:49:43;;;;;;;0.00;0.00;;;;;;;7.89;78.96;101872.53;15827744;28;20359;-48
2024/02/20 09:57:19;;;;;;;0.00;0.00;;;;;;;7.56;81.53;101875.13;15861108;28;20476;-49
2024/02/20 10:04:54;;;;;;;0.00;0.00;;;;;;;7.55;80.70;101892.13;15882907;22;20043;-49
2024/02/20 10:12:28;;;;;;;0.30;0.30;;;;;;;7.65;76.80;101890.19;15870836;28;20040;-52
2024/02/20 10:20:10;;;;;;;1.45;0.35;;;;;;;7.77;74.94;101890.72;15810460;28;20097;-50
2024/02/20 10:27:44;;;;;;;0.00;0.00;;;;;;;8.44;72.82;101887.97;15809262;28;20054;-52
2024/02/20 10:35:23;;;;;;;0.65;0.32;;;;;;;8.59;71.44;101888.13;15836582;28;20126;-51
2024/02/20 10:42:58;;;;;;;0.00;0.00;;;;;;;9.04;69.72;101887.53;15860075;28;20039;-54
2024/02/20 10:50:37;;;;;;;0.15;0.15;;;;;;;9.13;66.95;101872.25;15830010;28;20066;-53
2024/02/20 10:58:16;;;;;;;0.13;0.13;;;;;;;9.00;67.91;101875.50;15810498;28;20035;-52
2024/02/20 11:05:52;;;;;;;0.38;0.38;;;;;;;8.93;67.90;101871.84;15839442;28;20039;-52
2024/02/20 11:13:27;;;;;;;1.95;1.33;;;;;;;9.08;68.80;101861.25;15858801;28;20036;-51
2024/02/20 11:21:05;;;;;;;0.00;0.00;;;;;;;8.87;69.55;101875.22;15826754;28;20365;-53
2024/02/20 11:28:39;;;;;;;0.00;0.00;;;;;;;8.84;69.58;101871.00;15857664;28;20031;-51
2024/02/20 11:36:14;;;;;;;0.00;0.00;;;;;;;8.97;69.48;101869.66;15853436;28;20040;-55
2024/02/20 11:43:48;;;;;;;0.17;0.17;;;;;;;8.61;70.54;101865.53;15868895;28;20134;-56
2024/02/20 11:51:25;;;;;;;0.00;0.00;;;;;;;8.45;70.30;101852.19;15811829;28;20094;-49
2024/02/20 11:58:59;;;;;;;0.00;0.00;;;;;;;9.02;69.14;101865.44;15786283;28;20048;-53
2024/02/20 12:06:35;;;;;;;0.00;0.00;;;;;;;9.08;69.11;101869.28;15814432;28;20148;-52
2024/02/20 12:14:16;;;;;;;0.00;0.00;;;;;;;8.94;68.55;101874.34;15863566;28;20131;-50
2024/02/20 12:22:01;;;;;;;0.10;0.10;;;;;;;9.37;66.85;101865.97;15828200;28;20515;-49
2024/02/20 12:29:35;;;;;;;2.25;0.25;;;;;;;9.28;66.43;101867.00;15807777;28;20048;-47
2024/02/20 12:37:14;;;;;;;0.65;0.55;;;;;;;9.09;66.98;101842.34;15806014;28;20458;-52
2024/02/20 12:44:50;;;;;;;0.00;0.00;;;;;;;9.42;66.08;101860.94;15861394;28;20082;-51
2024/02/20 12:52:26;;;;;;;0.00;0.00;;;;;;;9.19;67.21;101875.09;15843290;28;20119;-52
2024/02/20 12:59:59;;;;;;;0.00;0.00;;;;;;;8.79;69.00;101873.38;15800397;28;20057;-49
2024/02/20 13:07:34;;;;;;;;;;;;;;;8.82;69.30;101877.56;15790211;28;20043;-52
2024/02/20 13:15:08;;;;;;;0.00;0.00;;;;;;;9.00;68.83;101871.97;15803802;28;20033;-48
2024/02/20 13:22:45;;;;;;;0.22;0.22;;;;;;;9.28;68.49;101864.34;15868757;28;20048;-50
2024/02/20 13:30:19;;;;;;;0.00;0.00;;;;;;;8.87;72.07;101878.72;15875785;28;20035;-47
2024/02/20 13:37:54;;;;;;;3.67;1.42;;;;;;;8.66;74.99;101879.25;15840774;28;20504;-48
2024/02/20 13:45:29;;;;;;;0.52;0.52;;;;;;;8.47;76.43;101879.59;15855389;28;20131;-52
2024/02/20 13:53:04;;;;;;;0.47;0.47;;;;;;;8.93;74.33;101870.00;15850499;28;20101;-50
2024/02/20 14:00:38;;;;;;;0.00;0.00;;;;;;;8.83;74.12;101873.88;15821069;28;20040;-52
2024/02/20 14:08:15;;;;;;;0.00;0.00;;;;;;;8.86;72.28;101865.47;15812404;28;20039;-50
2024/02/20 14:15:49;;;;;;;1.98;0.45;;;;;;;8.98;72.25;101872.16;15800013;28;20044;-51
2024/02/20 14:23:24;;;;;;;0.65;0.65;;;;;;;9.20;70.78;101867.91;15780950;28;20044;-51
2024/02/20 14:30:59;;;;;;;5.65;0.77;;;;;;;9.17;71.00;101868.22;15798809;28;20119;-49
2024/02/20 14:38:34;;;;;;;0.65;0.65;;;;;;;8.98;71.78;101877.50;15764178;28;20047;-52
2024/02/20 14:46:08;;;;;;;11.30;0.65;;;;;;;8.88;70.66;101826.00;15819354;28;20047;-52
2024/02/20 14:53:44;;;;;;;0.00;0.00;;;;;;;8.93;70.78;101879.88;15870616;28;20185;-53
2024/02/20 15:01:22;;;;;;;0.10;0.10;;;;;;;8.86;70.57;101878.88;15810030;28;20059;-48
2024/02/20 15:08:58;;;;;;;0.00;0.00;;;;;;;9.44;69.53;101861.59;15817212;28;20074;-53
2024/02/20 15:16:32;;;;;;;0.05;0.05;;;;;;;9.39;69.29;101858.59;15849275;28;20048;-54
2024/02/20 15:24:07;;;;;;;0.00;0.00;;;;;;;9.14;70.13;101861.41;15851934;28;20473;-50
2024/02/20 15:31:42;;;;;;;0.13;0.13;;;;;;;8.84;70.11;101848.75;15873354;28;20039;-48
2024/02/20 15:39:18;;;;;;;0.00;0.00;;;;;;;8.91;70.23;101861.31;15853240;28;20440;-54
2024/02/20 15:46:55;;;;;;;0.52;0.38;;;;;;;9.65;68.06;101847.56;15834563;28;20074;-52
2024/02/20 15:54:31;;;;;;;2.72;1.35;;;;;;;9.16;69.11;101842.47;15866755;28;20509;-49
2024/02/20 16:02:05;;;;;;;0.08;0.08;;;;;;;9.30;69.04;101836.38;15875613;28;20039;-52
2024/02/20 16:09:40;;;;;;;0.35;0.35;;;;;;;9.08;69.66;101851.34;15866810;22;20043;-48
2024/02/20 16:17:16;;;;;;;0.55;0.55;;;;;;;8.82;71.00;101854.31;15864373;28;20252;-50
2024/02/20 16:24:53;;;;;;;0.15;0.15;;;;;;;9.24;69.90;101857.69;15827689;28;20075;-51
2024/02/20 16:32:27;;;;;;;0.10;0.10;;;;;;;8.59;71.40;101862.22;15862496;28;20105;-48
2024/02/20 16:40:04;;;;;;;0.80;0.80;;;;;;;9.14;70.45;101864.06;15861735;28;20480;-48
2024/02/20 16:47:38;;;;;;;0.03;0.03;;;;;;;9.13;69.52;101869.59;15861094;28;20070;-50
2024/02/20 16:55:13;;;;;;;;;;;;;;;9.20;70.12;101866.06;15843607;28;20039;-49
2024/02/20 17:02:47;;;;;;;0.00;0.00;;;;;;;9.25;70.10;101859.34;15920809;27;19919;-47
2024/02/20 17:10:22;;;;;;;0.22;0.22;;;;;;;8.96;71.13;101860.78;15868627;27;20165;-47
2024/02/20 17:17:57;;;;;;;0.28;0.28;;;;;;;8.95;71.89;101872.47;15861318;28;20054;-48
2024/02/20 17:25:32;;;;;;;0.95;0.35;;;;;;;8.83;71.61;101868.53;15846125;27;20389;-46
2024/02/20 17:33:07;;;;;;;0.00;0.00;;;;;;;8.69;72.68;101868.22;15926747;27;20507;-45
2024/02/20 17:40:42;;;;;;;0.10;0.10;;;;;;;9.06;71.70;101868.63;15926142;27;20047;-51
2024/02/20 17:48:17;;;;;;;0.10;0.10;;;;;;;8.65;72.86;101868.72;15893708;27;20035;-52
2024/02/20 17:55:52;;;;;;;0.10;0.10;;;;;;;8.86;72.34;101877.06;15862645;28;20048;-51
2024/02/20 18:03:26;;;;;;;0.80;0.52;;;;;;;9.06;71.73;101856.06;15849848;28;20043;-48
2024/02/20 18:11:02;;;;;;;0.22;0.22;;;;;;;8.79;72.19;101857.31;15864274;28;20553;-48
2024/02/20 18:18:41;;;;;;;0.00;0.00;;;;;;;9.33;70.10;101845.91;15849379;28;20079;-46
2024/02/20 18:26:16;;;;;;;0.32;0.32;;;;;;;9.44;70.60;101841.00;15870460;28;20634;-47
2024/02/20 18:33:50;;;;;;;0.90;0.85;;;;;;;9.35;71.00;101843.88;15870253;28;20039;-56
2024/02/20 18:41:25;;;;;;;0.00;0.00;;;;;;;9.17;72.05;101844.97;15870734;28;20120;-46
2024/02/20 18:48:59;;;;;;;0.75;0.47;;;;;;;9.11;71.89;101847.50;15908648;27;20041;-54
2024/02/20 18:56:35;;;;;;;0.00;0.00;;;;;;;9.01;72.77;101841.53;15935317;27;20050;-50
2024/02/20 19:04:09;;;;;;;0.00;0.00;;;;;;;8.51;74.68;101848.00;15928273;27;20032;-50
2024/02/20 19:11:45;;;;;;;0.00;0.00;;;;;;;8.99;72.56;101836.31;15889330;27;20061;-46
2024/02/20 19:19:19;;;;;;;0.00;0.00;;;;;;;9.00;72.88;101832.66;15921690;27;20074;-45
2024/02/20 19:26:54;;;;;;;0.70;0.70;;;;;;;9.13;72.37;101827.56;15925401;27;20150;-47
2024/02/20 19:34:28;;;;;;;0.15;0.15;;;;;;;8.62;74.07;101829.72;15931463;27;20035;-47
2024/02/20 19:42:03;;;;;;;1.75;0.30;;;;;;;8.94;72.93;101820.78;15930681;27;20035;-44
2024/02/20 19:49:37;;;;;;;0.30;0.30;;;;;;;8.64;73.79;101824.22;15917370;27;20050;-48
2024/02/20 19:57:13;;;;;;;0.00;0.00;;;;;;;8.99;72.07;101822.09;15926263;27;20409;-52
2024/02/20 20:04:47;;;;;;;0.00;0.00;;;;;;;8.39;74.56;101821.59;15872417;27;20042;-51
2024/02/20 20:12:22;;;;;;;0.03;0.03;;;;;;;8.23;74.81;101826.09;15863049;27;20027;-48
2024/02/20 20:19:56;;;;;;;0.00;0.00;;;;;;;8.75;72.72;101809.63;15927434;27;20042;-50
2024/02/20 20:27:33;;;;;;;32.47;0.98;;;;;;;8.62;73.21;101818.19;15926922;27;20096;-49
2024/02/20 20:35:08;;;;;;;0.00;0.00;;;;;;;8.35;73.72;101809.53;15908838;27;20112;-51
2024/02/20 20:42:43;;;;;;;0.57;0.52;;;;;;;8.22;74.92;101805.72;15907794;27;20072;-47
2024/02/20 20:50:17;;;;;;;0.00;0.00;;;;;;;8.74;73.41;101794.59;15875866;27;20527;-50
2024/02/20 20:57:51;;;;;;;0.10;0.10;;;;;;;8.10;74.46;101791.81;15864008;27;20044;-50
2024/02/20 21:05:27;;;;;;;0.82;0.82;;;;;;;8.72;73.08;101777.84;15883389;27;20384;-48
2024/02/20 21:13:02;;;;;;;0.10;0.10;;;;;;;8.73;72.81;101774.19;15924152;27;20047;-49
2024/02/20 21:20:36;;;;;;;0.05;0.05;;;;;;;8.61;74.05;101774.53;15912121;27;20050;-53
2024/02/20 21:28:12;;;;;;;0.25;0.22;;;;;;;8.58;73.37;101769.56;15915982;27;20546;-50
2024/02/20 21:35:48;;;;;;;0.00;0.00;;;;;;;8.55;73.24;101769.06;15915377;27;20118;-50
2024/02/20 21:43:23;;;;;;;0.15;0.15;;;;;;;8.74;72.84;101757.94;15919777;27;20069;-49
2024/02/20 21:50:57;;;;;;;10.95;1.00;;;;;;;8.75;73.07;101756.09;15883036;27;20288;-47
2024/02/20 21:58:32;;;;;;;0.00;0.00;;;;;;;8.47;73.60;101745.81;15910581;27;20408;-50
2024/02/20 22:06:06;;;;;;;0.00;0.00;;;;;;;8.64;73.21;101726.03;15882485;22;20135;-53
2024/02/20 22:13:42;;;;;;;0.00;0.00;;;;;;;8.71;73.16;101728.84;15799225;28;20054;-54
2024/02/20 22:21:17;;;;;;;0.00;0.00;;;;;;;8.36;74.38;101730.13;15846987;28;20051;-54
2024/02/20 22:28:52;;;;;;;0.05;0.05;;;;;;;8.32;74.23;101716.25;15877447;28;20507;-54
2024/02/20 22:36:27;;;;;;;0.00;0.00;;;;;;;8.40;74.71;101710.06;15862090;28;20042;-53
2024/02/20 22:44:02;;;;;;;2.20;1.15;;;;;;;7.94;75.79;101717.81;15864642;28;20412;-51
2024/02/20 22:51:37;;;;;;;0.10;0.10;;;;;;;8.28;74.16;101700.72;15856975;28;20088;-49
2024/02/20 22:59:13;;;;;;;0.95;0.95;;;;;;;8.30;73.64;101699.53;15833120;28;20441;-51
2024/02/20 23:06:46;;;;;;;0.00;0.00;;;;;;;8.34;73.24;101695.50;15851585;28;20496;-51
2024/02/20 23:14:40;;;;;;;0.00;0.00;;;;;;;8.30;73.29;101683.50;15845915;28;20090;-48
2024/02/20 23:22:32;;;;;;;1.98;1.35;;;;;;;7.80;75.70;101686.44;15829735;28;20565;-49
2024/02/20 23:30:25;;;;;;;1.80;0.80;;;;;;;7.99;75.33;101667.34;15836104;28;20044;-49
2024/02/20 23:38:05;;;;;;;0.00;0.00;;;;;;;7.90;75.68;101663.03;15863154;28;20043;-52
2024/02/20 23:45:39;;;;;;;0.98;0.85;;;;;;;8.02;75.33;101652.78;15854406;28;20048;-50
2024/02/20 23:53:13;;;;;;;0.00;0.00;;;;;;;7.95;75.63;101643.81;15855086;28;20043;-52
